Austin, TX (78727)

7:43 PM CDT on July 29, 2016 (GMT -0500)
Walnut Crossing | | Change Station

Elev 696 ft 30.41 °N, 97.71 °W | Updated 12 seconds ago

Clear
Clear
89.1 °F
Feels Like 93 °F
N
3.1
Wind Variable Wind from SSE
Gusts 3.1 mph

Today
High -- | Low -- °F
--% Chance of Precip.
Yesterday
High -- | Low -- °F
Precip. -- in
Pressure 29.89 in
Visibility 10.0 miles
Clouds Clear
Heat Index 93 °F
Dew Point 68 °F
Humidity 50%
Rainfall in
Snow Depth Not available.
6:47 AM 8:26 PM
Waning Crescent, 18% visible
METAR KATT 292351Z AUTO 16005KT 10SM CLR 34/21 A2994 RMK AO2 SLP122 T03390211 10356 20317 56020
Pressure 29.89 in
Visibility 10.0 miles
Clouds Clear
Heat Index 93 °F
Dew Point 68 °F
Humidity 50%
Rainfall in
Snow Depth Not available.
6:47 AM 8:26 PM
Waning Crescent, 18% visible
METAR KATT 292351Z AUTO 16005KT 10SM CLR 34/21 A2994 RMK AO2 SLP122 T03390211 10356 20317 56020

10-Day Weather Forecast

Almanac

Astronomy

Jul. 29, 2016 Rise Set
Actual Time
Civil Twilight
Nautical Twilight
Astronomical Twilight
Moon
Length of Visible Light
Length of Day
Tomorrow will be .
, % of the Moon is Illuminated

Today's Extremes

State Highs State Lows

Community

WunderPhotos

Upload Photos

1,928,457 photos uploaded!

WunderBlog® & News

Nearby

Air Quality

  Air Quality AQ Index Pollutant
Not available.

Snow Depth

Station Depth Elevation

Earthquake Activity

City Distance Mag. Time & Date
Minimum magnitude displayed is 2.5.

Coastal Water Temperatures

Place Temperature

Stations

Nearby Weather Stations

Station Location Temp. Windchill Dew Point Humidity Wind Precip. Elev Updated Type
                   

Watches & Warnings

There are currently no watches in effect.